Terminal Aerodrome Forecast
Issued by NWS

Home | Current Version | Previous Version | Text Only | Print | Product List | Glossary On
Versions: 1 2 3 4 5 6 7 8 9 10 11 12 13 14 15 16 17 18 19 20 21 22 23 24
000
FTUS43 KDLH 261100 AAB
TAFBRD
TAF AMD
KBRD 261150Z 2612/2712 VRB01KT 1SM BR SCT002
      TEMPO 2612/2613 3SM BR
     FM261300 27003KT P6SM SKC
     FM261700 25008G15KT P6SM SKC
     FM270000 27008KT P6SM VCSH BKN050=

USA.gov is the U.S. government's official web portal to all federal, state and local government web resources and services.